Time;durP1;ratioP1;P1;durP2;ratioP2;P2;SDS_P1;SDS_P2;PMS_P1;PMS_P2;Temp;Humidity;BMP_temperature;BMP_pressure;BME280_temperature;BME280_humidity;BME280_pressure;Samples;Min_cycle;Max_cycle;Signal;HPM_P1;HPM_P2
2023/08/03 00:01:16;;;;;;;;;;;17.10;87.10;;;;;;4995359;28;19914;-85
2023/08/03 00:03:42;;;;;;;;;;;17.10;87.10;;;;;;4992908;28;19917;-84
2023/08/03 00:06:07;;;;;;;;;;;17.10;87.00;;;;;;5006407;28;20440;-85
2023/08/03 00:08:33;;;;;;;;;;;17.10;87.50;;;;;;5005503;28;19918;-85
2023/08/03 00:11:00;;;;;;;;;;;17.00;87.90;;;;;;4998241;28;19937;-85
2023/08/03 00:13:26;;;;;;;;;;;17.00;88.40;;;;;;4998952;28;19945;-83
2023/08/03 00:15:51;;;;;;;;;;;16.90;88.80;;;;;;4997750;28;19925;-87
2023/08/03 00:18:17;;;;;;;;;;;16.80;88.80;;;;;;5005277;28;19914;-85
2023/08/03 00:20:42;;;;;;;;;;;16.70;88.50;;;;;;5005261;28;20296;-85
2023/08/03 00:23:08;;;;;;;;;;;16.70;88.90;;;;;;4993576;28;19949;-84
2023/08/03 00:25:33;;;;;;;;;;;16.70;88.60;;;;;;4988847;28;19962;-85
2023/08/03 00:27:59;;;;;;;;;;;16.60;88.80;;;;;;4996549;28;19914;-86
2023/08/03 00:30:24;;;;;;;;;;;16.60;89.10;;;;;;5002660;28;19914;-85
2023/08/03 00:32:50;;;;;;;;;;;16.50;89.30;;;;;;4999803;28;20003;-85
2023/08/03 00:35:15;;;;;;;;;;;16.50;89.30;;;;;;4999867;28;19948;-83
2023/08/03 00:37:41;;;;;;;;;;;16.50;89.40;;;;;;5003793;28;20404;-85
2023/08/03 00:40:06;;;;;;;;;;;16.50;88.80;;;;;;4994543;28;19917;-84
2023/08/03 00:42:32;;;;;;;;;;;16.50;89.00;;;;;;5003062;28;19921;-84
2023/08/03 00:44:57;;;;;;;;;;;16.50;88.80;;;;;;4992977;28;20389;-83
2023/08/03 00:47:23;;;;;;;;;;;16.60;88.70;;;;;;5000116;28;20033;-85
2023/08/03 00:49:48;;;;;;;;;;;16.60;88.40;;;;;;4986697;28;19917;-84
2023/08/03 00:52:14;;;;;;;;;;;16.60;88.60;;;;;;5004580;28;19944;-84
2023/08/03 00:54:40;;;;;;;;;;;16.70;87.90;;;;;;5003008;28;19914;-85
2023/08/03 00:57:05;;;;;;;;;;;16.60;88.40;;;;;;5001737;28;20392;-85
2023/08/03 00:59:31;;;;;;;;;;;16.60;88.00;;;;;;5002958;28;19909;-85
2023/08/03 01:01:57;;;;;;;;;;;16.60;88.30;;;;;;5001399;28;19910;-86
2023/08/03 01:04:22;;;;;;;;;;;16.60;88.80;;;;;;4983537;28;19910;-85
2023/08/03 01:06:48;;;;;;;;;;;16.50;88.80;;;;;;4997756;28;19949;-86
2023/08/03 01:09:13;;;;;;;;;;;16.50;89.00;;;;;;5001622;28;19939;-86
2023/08/03 01:11:39;;;;;;;;;;;16.50;89.10;;;;;;5001629;28;19914;-85
2023/08/03 01:14:04;;;;;;;;;;;16.50;89.00;;;;;;5001819;28;19954;-86
2023/08/03 01:16:30;;;;;;;;;;;16.60;88.70;;;;;;5001857;28;20326;-85
2023/08/03 01:18:56;;;;;;;;;;;16.60;89.00;;;;;;5001539;28;20490;-85
2023/08/03 01:27:27;;;;;;;;;;;16.60;88.80;;;;;;4999887;28;19916;-86
2023/08/03 01:29:53;;;;;;;;;;;16.60;88.50;;;;;;4997790;28;19910;-87
2023/08/03 01:32:18;;;;;;;;;;;16.70;88.60;;;;;;4993711;28;19914;-85
2023/08/03 01:34:44;;;;;;;;;;;16.60;89.20;;;;;;4979613;28;19910;-87
2023/08/03 01:37:09;;;;;;;;;;;16.60;89.40;;;;;;4979654;28;19917;-88
2023/08/03 01:39:35;;;;;;;;;;;16.60;89.50;;;;;;4977323;28;20414;-85
2023/08/03 01:42:00;;;;;;;;;;;16.60;89.70;;;;;;4995072;28;19918;-84
2023/08/03 01:44:29;;;;;;;;;;;16.50;89.90;;;;;;4998382;28;20225;-85
2023/08/03 01:46:56;;;;;;;;;;;16.50;89.90;;;;;;4985329;28;20329;-85
2023/08/03 01:49:22;;;;;;;;;;;16.50;90.30;;;;;;4981163;28;19979;-86
2023/08/03 01:51:47;;;;;;;;;;;16.50;90.20;;;;;;4981422;28;19918;-83
2023/08/03 01:54:13;;;;;;;;;;;16.50;90.20;;;;;;4977143;28;19950;-87
2023/08/03 01:56:39;;;;;;;;;;;16.50;90.10;;;;;;4976345;28;20389;-86
2023/08/03 01:59:05;;;;;;;;;;;16.50;90.30;;;;;;4979330;28;19921;-84
2023/08/03 02:01:30;;;;;;;;;;;16.50;90.10;;;;;;4992349;28;19917;-85
2023/08/03 02:03:56;;;;;;;;;;;16.50;90.00;;;;;;5000029;28;19910;-85
2023/08/03 02:06:21;;;;;;;;;;;16.50;89.90;;;;;;4991860;28;19918;-86
2023/08/03 02:08:47;;;;;;;;;;;16.50;90.10;;;;;;5000239;28;19922;-86
2023/08/03 02:11:12;;;;;;;;;;;16.50;89.80;;;;;;4999753;28;19910;-86
2023/08/03 02:13:38;;;;;;;;;;;16.50;89.70;;;;;;5000463;28;19981;-88
2023/08/03 02:16:08;;;;;;;;;;;16.60;89.70;;;;;;5000916;28;19910;-85
2023/08/03 02:18:34;;;;;;;;;;;16.50;89.50;;;;;;5000568;28;19921;-86
2023/08/03 02:20:59;;;;;;;;;;;16.60;89.60;;;;;;4997434;28;19914;-87
2023/08/03 02:23:25;;;;;;;;;;;16.60;89.60;;;;;;4999002;28;19913;-85
2023/08/03 02:25:50;;;;;;;;;;;16.60;89.70;;;;;;4998112;28;19914;-86
2023/08/03 02:28:16;;;;;;;;;;;16.60;89.50;;;;;;4994560;28;19914;-86
2023/08/03 02:30:41;;;;;;;;;;;16.60;89.50;;;;;;5004233;28;19928;-85
2023/08/03 02:33:07;;;;;;;;;;;16.60;89.60;;;;;;5013427;28;19960;-85
2023/08/03 02:35:34;;;;;;;;;;;16.60;89.60;;;;;;5002408;28;19914;-84
2023/08/03 02:37:59;;;;;;;;;;;16.60;89.40;;;;;;4991403;28;19914;-83
2023/08/03 02:40:25;;;;;;;;;;;16.60;89.40;;;;;;4983078;28;19990;-85
2023/08/03 02:42:50;;;;;;;;;;;16.60;89.20;;;;;;4996251;28;19941;-86
2023/08/03 02:45:16;;;;;;;;;;;16.70;88.80;;;;;;5002186;28;19909;-86
2023/08/03 02:47:41;;;;;;;;;;;16.70;88.70;;;;;;5001330;28;19926;-86
2023/08/03 02:50:07;;;;;;;;;;;16.70;88.70;;;;;;5005944;28;19922;-85
2023/08/03 02:52:32;;;;;;;;;;;16.70;88.80;;;;;;5001920;28;19914;-85
2023/08/03 02:54:58;;;;;;;;;;;16.60;88.90;;;;;;5004451;28;19914;-85
2023/08/03 02:57:23;;;;;;;;;;;16.60;88.80;;;;;;5003173;28;19910;-86
2023/08/03 02:59:49;;;;;;;;;;;16.60;89.00;;;;;;5006248;28;19916;-87
2023/08/03 03:02:14;;;;;;;;;;;16.60;89.00;;;;;;5004955;28;19938;-86
2023/08/03 03:04:40;;;;;;;;;;;16.60;88.60;;;;;;5008055;28;19909;-87
2023/08/03 03:07:05;;;;;;;;;;;16.60;88.40;;;;;;5002033;28;19945;-86
2023/08/03 03:09:31;;;;;;;;;;;16.70;88.20;;;;;;4994181;28;20318;-86
2023/08/03 03:11:57;;;;;;;;;;;16.70;88.10;;;;;;4985424;28;19941;-84
2023/08/03 03:14:25;;;;;;;;;;;16.70;88.40;;;;;;4984870;28;19955;-85
2023/08/03 03:16:50;;;;;;;;;;;16.80;88.10;;;;;;4987263;28;19914;-85
2023/08/03 03:19:16;;;;;;;;;;;16.70;88.30;;;;;;5002054;28;20278;-85
2023/08/03 03:21:41;;;;;;;;;;;16.80;88.30;;;;;;4997981;28;20255;-85
2023/08/03 03:24:07;;;;;;;;;;;16.70;88.30;;;;;;4999529;28;19922;-86
2023/08/03 03:26:32;;;;;;;;;;;16.70;88.20;;;;;;4991139;28;20370;-85
2023/08/03 03:28:58;;;;;;;;;;;16.60;88.20;;;;;;4988041;28;20354;-86
2023/08/03 03:31:23;;;;;;;;;;;16.60;88.20;;;;;;4988272;28;19911;-87
2023/08/03 03:33:49;;;;;;;;;;;16.60;88.20;;;;;;4997741;28;19922;-86
2023/08/03 03:36:14;;;;;;;;;;;16.70;87.60;;;;;;5002817;28;19914;-85
2023/08/03 03:38:40;;;;;;;;;;;16.70;87.60;;;;;;4989635;28;19925;-86
2023/08/03 03:41:05;;;;;;;;;;;16.60;87.60;;;;;;4999692;28;19920;-86
2023/08/03 03:43:31;;;;;;;;;;;16.70;87.30;;;;;;5000183;28;19914;-84
2023/08/03 03:45:56;;;;;;;;;;;16.80;87.10;;;;;;5003641;28;19953;-85
2023/08/03 03:48:22;;;;;;;;;;;16.80;87.10;;;;;;5004973;28;19937;-88
2023/08/03 03:50:47;;;;;;;;;;;16.80;87.00;;;;;;4999892;28;19910;-86
2023/08/03 03:53:13;;;;;;;;;;;16.80;86.80;;;;;;5000657;28;19911;-85
2023/08/03 03:55:38;;;;;;;;;;;16.80;86.30;;;;;;4994228;28;19899;-85
2023/08/03 03:58:04;;;;;;;;;;;16.90;86.20;;;;;;4999053;28;19937;-86
2023/08/03 04:00:30;;;;;;;;;;;16.80;86.20;;;;;;5003485;28;20297;-84
2023/08/03 04:02:55;;;;;;;;;;;16.90;85.70;;;;;;4999504;28;19914;-88
2023/08/03 04:05:21;;;;;;;;;;;16.90;85.90;;;;;;4981105;28;20317;-85
2023/08/03 04:07:46;;;;;;;;;;;16.90;86.10;;;;;;4987571;28;20008;-86
2023/08/03 04:10:12;;;;;;;;;;;16.90;86.00;;;;;;4978316;28;19910;-86
2023/08/03 04:12:37;;;;;;;;;;;16.90;85.90;;;;;;4979225;28;19919;-85
2023/08/03 04:15:03;;;;;;;;;;;16.80;86.20;;;;;;4977663;28;19945;-85
2023/08/03 04:17:28;;;;;;;;;;;16.90;85.90;;;;;;4993430;28;19949;-85
2023/08/03 04:19:54;;;;;;;;;;;16.90;85.80;;;;;;4993167;28;19914;-85
2023/08/03 04:22:19;;;;;;;;;;;16.90;85.70;;;;;;4993473;28;20280;-84
2023/08/03 04:24:45;;;;;;;;;;;16.80;86.00;;;;;;5000150;28;19977;-85
2023/08/03 04:27:10;;;;;;;;;;;16.90;85.90;;;;;;5000137;28;19910;-86
2023/08/03 04:29:36;;;;;;;;;;;16.90;86.00;;;;;;4989249;28;19965;-86
2023/08/03 04:32:01;;;;;;;;;;;16.90;85.80;;;;;;4995121;28;20469;-86
2023/08/03 04:34:27;;;;;;;;;;;16.90;85.10;;;;;;5000460;28;19968;-85
2023/08/03 04:36:52;;;;;;;;;;;16.90;85.20;;;;;;5002424;28;19909;-85
2023/08/03 04:39:18;;;;;;;;;;;16.90;85.30;;;;;;4992455;28;19940;-86
2023/08/03 04:41:43;;;;;;;;;;;16.90;85.20;;;;;;4986830;28;19910;-86
2023/08/03 04:44:09;;;;;;;;;;;17.00;85.00;;;;;;5019064;28;19914;-86
2023/08/03 04:46:34;;;;;;;;;;;17.10;84.40;;;;;;5000658;28;19910;-85
2023/08/03 04:49:00;;;;;;;;;;;17.10;84.20;;;;;;5004759;28;19921;-86
2023/08/03 04:51:25;;;;;;;;;;;17.00;84.40;;;;;;5006728;28;19910;-86
2023/08/03 04:53:51;;;;;;;;;;;17.10;84.50;;;;;;5005516;28;19921;-85
2023/08/03 04:56:16;;;;;;;;;;;17.10;84.30;;;;;;5004186;28;19910;-84
2023/08/03 04:58:42;;;;;;;;;;;17.10;84.40;;;;;;5017889;28;20011;-85
2023/08/03 05:01:07;;;;;;;;;;;17.10;84.00;;;;;;5001914;28;19921;-84
2023/08/03 05:03:33;;;;;;;;;;;17.10;83.80;;;;;;5002398;28;19914;-80
2023/08/03 05:05:58;;;;;;;;;;;17.10;83.60;;;;;;5001349;28;19956;-80
2023/08/03 05:08:24;;;;;;;;;;;17.10;83.80;;;;;;4997430;28;19918;-82
2023/08/03 05:10:50;;;;;;;;;;;17.10;83.90;;;;;;5004749;28;19910;-82
2023/08/03 05:13:17;;;;;;;;;;;17.10;84.20;;;;;;5005220;28;19933;-81
2023/08/03 05:15:43;;;;;;;;;;;17.10;83.80;;;;;;4993057;28;19975;-81
2023/08/03 05:18:08;;;;;;;;;;;17.10;84.10;;;;;;5005551;28;19984;-83
2023/08/03 05:20:34;;;;;;;;;;;17.10;84.20;;;;;;5005147;28;19910;-82
2023/08/03 05:22:59;;;;;;;;;;;17.10;84.90;;;;;;4996986;28;19910;-82
2023/08/03 05:25:25;;;;;;;;;;;17.10;85.30;;;;;;4994496;28;19913;-86
2023/08/03 05:27:50;;;;;;;;;;;16.90;85.80;;;;;;5000172;28;19914;-84
2023/08/03 05:30:16;;;;;;;;;;;16.90;86.40;;;;;;5000130;28;19913;-85
2023/08/03 05:32:41;;;;;;;;;;;16.80;86.90;;;;;;4996991;28;19918;-85
2023/08/03 05:35:07;;;;;;;;;;;16.80;87.20;;;;;;5002178;28;19910;-86
2023/08/03 05:37:32;;;;;;;;;;;16.70;87.50;;;;;;4998649;28;19914;-85
2023/08/03 05:40:01;;;;;;;;;;;16.60;87.90;;;;;;4999261;28;20298;-84
2023/08/03 05:42:29;;;;;;;;;;;16.50;88.40;;;;;;4997185;28;19914;-83
2023/08/03 05:44:54;;;;;;;;;;;16.50;88.80;;;;;;5001405;28;19909;-85
2023/08/03 05:47:20;;;;;;;;;;;16.50;88.80;;;;;;5001589;28;19944;-84
2023/08/03 05:49:45;;;;;;;;;;;16.50;88.50;;;;;;4999636;28;19922;-84
2023/08/03 05:52:14;;;;;;;;;;;16.50;88.70;;;;;;4997993;28;20112;-84
2023/08/03 05:54:39;;;;;;;;;;;16.50;88.80;;;;;;4998741;28;19968;-81
2023/08/03 05:57:05;;;;;;;;;;;16.50;88.90;;;;;;5008162;28;19917;-82
2023/08/03 05:59:35;;;;;;;;;;;16.60;88.70;;;;;;5015950;28;19910;-83
2023/08/03 06:02:00;;;;;;;;;;;16.60;88.60;;;;;;5011060;28;19921;-85
2023/08/03 06:04:26;;;;;;;;;;;16.60;88.20;;;;;;4994824;28;19914;-83
2023/08/03 06:06:51;;;;;;;;;;;16.70;88.20;;;;;;4998211;28;19924;-84
2023/08/03 06:09:17;;;;;;;;;;;16.70;88.00;;;;;;5008040;28;19926;-81
2023/08/03 06:11:43;;;;;;;;;;;16.80;87.60;;;;;;5005127;28;19914;-83
2023/08/03 06:14:12;;;;;;;;;;;16.80;87.50;;;;;;5005366;28;19945;-81
2023/08/03 06:16:38;;;;;;;;;;;16.80;87.50;;;;;;5012194;28;19909;-83
2023/08/03 06:19:04;;;;;;;;;;;16.90;87.20;;;;;;5015170;28;19901;-84
2023/08/03 06:21:30;;;;;;;;;;;17.00;86.80;;;;;;4995688;28;19898;-81
2023/08/03 06:23:57;;;;;;;;;;;17.10;86.80;;;;;;5000004;28;19910;-83
2023/08/03 06:26:23;;;;;;;;;;;17.10;86.80;;;;;;5011667;28;19917;-83
2023/08/03 06:28:53;;;;;;;;;;;17.10;86.50;;;;;;5013998;28;20129;-81
2023/08/03 06:31:19;;;;;;;;;;;17.10;86.80;;;;;;5013519;28;19990;-83
2023/08/03 06:33:46;;;;;;;;;;;17.00;86.80;;;;;;5019316;28;19898;-83
2023/08/03 06:36:13;;;;;;;;;;;17.00;87.40;;;;;;5011168;28;19925;-82
2023/08/03 06:38:38;;;;;;;;;;;16.90;87.80;;;;;;5006952;28;19985;-82
2023/08/03 06:41:04;;;;;;;;;;;16.80;87.90;;;;;;5001817;28;19910;-82
2023/08/03 06:43:30;;;;;;;;;;;16.70;88.70;;;;;;5013760;28;19918;-83
2023/08/03 06:45:55;;;;;;;;;;;16.60;88.90;;;;;;4997828;28;19920;-82
2023/08/03 06:48:21;;;;;;;;;;;16.50;89.60;;;;;;4989046;28;20285;-82
2023/08/03 06:50:46;;;;;;;;;;;16.50;90.30;;;;;;4986458;28;20012;-81
2023/08/03 06:53:12;;;;;;;;;;;16.40;90.70;;;;;;5000670;28;19915;-81
2023/08/03 06:55:37;;;;;;;;;;;16.30;90.90;;;;;;4996841;28;20477;-82
2023/08/03 06:58:03;;;;;;;;;;;16.30;91.20;;;;;;4998510;28;19972;-80
2023/08/03 07:00:29;;;;;;;;;;;16.20;91.20;;;;;;4999028;28;19914;-81
2023/08/03 07:02:55;;;;;;;;;;;16.10;91.60;;;;;;4998684;28;19914;-80
2023/08/03 07:05:20;;;;;;;;;;;16.10;91.80;;;;;;4998229;28;19936;-81
2023/08/03 07:07:46;;;;;;;;;;;16.10;91.90;;;;;;4997795;28;19922;-81
2023/08/03 07:10:11;;;;;;;;;;;16.10;92.30;;;;;;4998426;28;19921;-81
2023/08/03 07:12:37;;;;;;;;;;;16.20;92.30;;;;;;5000295;28;19968;-81
2023/08/03 07:15:03;;;;;;;;;;;16.10;92.10;;;;;;4998668;28;19953;-82
2023/08/03 07:17:29;;;;;;;;;;;16.10;92.20;;;;;;4998245;28;19924;-82
2023/08/03 07:19:54;;;;;;;;;;;16.10;92.50;;;;;;4999178;28;19945;-82
2023/08/03 07:22:23;;;;;;;;;;;16.10;92.30;;;;;;4999458;28;20333;-81
2023/08/03 07:24:49;;;;;;;;;;;16.10;92.10;;;;;;5001520;28;19917;-83
2023/08/03 07:27:15;;;;;;;;;;;16.20;92.20;;;;;;4993969;28;19914;-82
2023/08/03 07:29:41;;;;;;;;;;;16.30;92.30;;;;;;4983552;28;19921;-82
2023/08/03 07:32:07;;;;;;;;;;;16.30;92.10;;;;;;4985739;28;19921;-81
2023/08/03 07:34:32;;;;;;;;;;;16.30;92.00;;;;;;4989425;28;19914;-81
2023/08/03 07:36:58;;;;;;;;;;;16.30;92.10;;;;;;5001571;28;19937;-81
2023/08/03 07:39:24;;;;;;;;;;;16.30;92.00;;;;;;4999439;28;19929;-81
2023/08/03 07:41:49;;;;;;;;;;;16.30;92.10;;;;;;4985008;28;19910;-82
2023/08/03 07:44:16;;;;;;;;;;;16.30;92.10;;;;;;4979787;28;20009;-81
2023/08/03 07:46:41;;;;;;;;;;;16.40;92.20;;;;;;4995461;28;19921;-82
2023/08/03 07:49:07;;;;;;;;;;;16.50;92.10;;;;;;4998127;28;19918;-81
2023/08/03 07:51:32;;;;;;;;;;;16.50;91.80;;;;;;4994528;28;19914;-83
2023/08/03 07:53:58;;;;;;;;;;;16.60;91.40;;;;;;4992971;28;19918;-81
2023/08/03 07:56:23;;;;;;;;;;;16.60;91.50;;;;;;5005535;28;19910;-80
2023/08/03 07:58:50;;;;;;;;;;;16.80;91.40;;;;;;4996445;28;19920;-84
2023/08/03 08:01:16;;;;;;;;;;;16.80;91.30;;;;;;4992041;28;19957;-84
2023/08/03 08:03:41;;;;;;;;;;;16.90;91.00;;;;;;4994422;28;19952;-84
2023/08/03 08:06:07;;;;;;;;;;;16.80;90.80;;;;;;4985911;28;20001;-83
2023/08/03 08:08:33;;;;;;;;;;;16.80;91.00;;;;;;4988233;28;19914;-84
2023/08/03 08:10:58;;;;;;;;;;;16.80;91.10;;;;;;4995059;28;20057;-84
2023/08/03 08:13:24;;;;;;;;;;;16.80;90.60;;;;;;4988094;28;19914;-84
2023/08/03 08:15:50;;;;;;;;;;;16.80;90.70;;;;;;4993603;28;20064;-84
2023/08/03 08:18:15;;;;;;;;;;;16.90;90.60;;;;;;4995132;28;20293;-85
2023/08/03 08:20:40;;;;;;;;;;;16.90;90.30;;;;;;4996229;28;19914;-86
2023/08/03 08:23:06;;;;;;;;;;;17.00;90.20;;;;;;4998395;28;19921;-86
2023/08/03 08:25:35;;;;;;;;;;;17.10;90.10;;;;;;5001962;28;19914;-83
2023/08/03 08:28:01;;;;;;;;;;;17.30;90.20;;;;;;4998007;28;19948;-85
2023/08/03 08:30:26;;;;;;;;;;;17.50;89.70;;;;;;4990888;28;19914;-86
2023/08/03 08:32:52;;;;;;;;;;;17.60;89.20;;;;;;5005668;28;19997;-87
2023/08/03 08:35:17;;;;;;;;;;;17.60;89.00;;;;;;5009642;28;19914;-85
2023/08/03 08:37:43;;;;;;;;;;;17.60;88.10;;;;;;5004033;28;19910;-84
2023/08/03 08:40:11;;;;;;;;;;;17.60;88.10;;;;;;4983102;28;19985;-84
2023/08/03 08:42:37;;;;;;;;;;;17.60;88.10;;;;;;4982410;28;20373;-84
2023/08/03 08:45:06;;;;;;;;;;;17.70;88.30;;;;;;4992204;28;19914;-84
2023/08/03 08:47:32;;;;;;;;;;;17.90;88.50;;;;;;4993416;28;19910;-83
2023/08/03 08:49:57;;;;;;;;;;;18.10;86.80;;;;;;4987000;28;19976;-84
2023/08/03 08:52:23;;;;;;;;;;;18.10;86.50;;;;;;4983731;28;20385;-84
2023/08/03 08:54:49;;;;;;;;;;;18.10;86.40;;;;;;4986251;28;20436;-84
2023/08/03 08:57:15;;;;;;;;;;;18.10;86.50;;;;;;4985577;28;19937;-84
2023/08/03 08:59:42;;;;;;;;;;;18.10;86.20;;;;;;4995249;28;19914;-87
2023/08/03 09:02:08;;;;;;;;;;;18.10;85.90;;;;;;4994370;28;19918;-84
2023/08/03 09:04:33;;;;;;;;;;;18.10;86.00;;;;;;4989670;28;19921;-84
2023/08/03 09:06:59;;;;;;;;;;;18.20;85.90;;;;;;4977840;28;20285;-85
2023/08/03 09:09:31;;;;;;;;;;;18.30;85.50;;;;;;4992597;28;19926;-84
2023/08/03 09:11:56;;;;;;;;;;;18.30;84.90;;;;;;4990916;28;20230;-84
2023/08/03 09:14:22;;;;;;;;;;;18.30;84.90;;;;;;4984357;28;19914;-86
2023/08/03 09:16:48;;;;;;;;;;;18.50;84.90;;;;;;4985006;28;19914;-88
2023/08/03 09:19:13;;;;;;;;;;;18.60;84.90;;;;;;4990585;28;19918;-84
2023/08/03 09:21:39;;;;;;;;;;;18.80;84.30;;;;;;4984221;28;20004;-84
2023/08/03 09:24:15;;;;;;;;;;;18.90;83.50;;;;;;4990192;28;19914;-84
2023/08/03 09:26:40;;;;;;;;;;;19.00;83.30;;;;;;4990520;28;19914;-84
2023/08/03 09:29:10;;;;;;;;;;;19.00;83.00;;;;;;4989538;28;19929;-84
2023/08/03 09:31:36;;;;;;;;;;;19.00;82.30;;;;;;4985446;28;19921;-84
2023/08/03 09:34:01;;;;;;;;;;;19.00;82.40;;;;;;4983629;28;19918;-83
2023/08/03 09:36:27;;;;;;;;;;;18.90;82.00;;;;;;4986162;28;19918;-87
2023/08/03 09:39:08;;;;;;;;;;;19.00;82.30;;;;;;4990245;28;20257;-88
2023/08/03 09:41:35;;;;;;;;;;;19.00;82.60;;;;;;4986211;28;19910;-84
2023/08/03 09:44:01;;;;;;;;;;;19.00;81.90;;;;;;4994171;28;20341;-86
2023/08/03 09:46:27;;;;;;;;;;;18.80;82.30;;;;;;4994713;28;19945;-84
2023/08/03 09:48:52;;;;;;;;;;;18.80;82.50;;;;;;4990943;28;20261;-85
2023/08/03 09:51:21;;;;;;;;;;;18.60;82.50;;;;;;4994103;28;19921;-84
2023/08/03 09:53:47;;;;;;;;;;;18.60;82.20;;;;;;4998536;28;19910;-85
2023/08/03 09:56:18;;;;;;;;;;;18.60;82.70;;;;;;4995765;28;20016;-85
2023/08/03 09:58:51;;;;;;;;;;;18.70;82.40;;;;;;4993251;28;19914;-83
2023/08/03 10:01:21;;;;;;;;;;;18.80;82.40;;;;;;4984957;28;19925;-86
2023/08/03 10:03:51;;;;;;;;;;;18.90;81.70;;;;;;4988506;28;20034;-84
2023/08/03 10:06:17;;;;;;;;;;;18.80;82.00;;;;;;4992665;28;19918;-86
2023/08/03 10:08:52;;;;;;;;;;;18.80;82.10;;;;;;4989047;28;19917;-85
2023/08/03 10:11:18;;;;;;;;;;;18.70;82.40;;;;;;4991445;28;19914;-87
2023/08/03 10:13:47;;;;;;;;;;;18.70;81.70;;;;;;4993462;28;19957;-87
2023/08/03 10:16:16;;;;;;;;;;;18.60;82.30;;;;;;4990234;28;20381;-86
2023/08/03 10:18:42;;;;;;;;;;;18.80;83.30;;;;;;4984259;28;19920;-85
2023/08/03 10:21:08;;;;;;;;;;;18.70;83.10;;;;;;4989581;28;19918;-86
2023/08/03 10:23:38;;;;;;;;;;;18.80;83.20;;;;;;4992794;28;19910;-86
2023/08/03 10:26:04;;;;;;;;;;;18.70;82.50;;;;;;4988103;28;19914;-84
2023/08/03 10:28:50;;;;;;;;;;;18.70;81.40;;;;;;4991122;28;19918;-85
2023/08/03 10:31:16;;;;;;;;;;;18.70;82.40;;;;;;4988294;28;19922;-84
2023/08/03 10:34:01;;;;;;;;;;;19.00;81.80;;;;;;4985327;28;19917;-86
2023/08/03 10:36:27;;;;;;;;;;;18.90;81.00;;;;;;4982312;28;20001;-85
2023/08/03 10:38:58;;;;;;;;;;;18.80;80.70;;;;;;4985747;28;19949;-87
2023/08/03 10:41:25;;;;;;;;;;;18.60;81.30;;;;;;4990225;28;20012;-85
2023/08/03 10:44:14;;;;;;;;;;;18.60;81.50;;;;;;4982602;28;19921;-85
2023/08/03 10:46:50;;;;;;;;;;;18.60;81.50;;;;;;4976889;28;19950;-85
2023/08/03 10:49:18;;;;;;;;;;;18.60;82.80;;;;;;4972480;28;19918;-85
2023/08/03 10:51:47;;;;;;;;;;;18.60;82.70;;;;;;4990850;28;20401;-84
2023/08/03 10:54:12;;;;;;;;;;;18.60;82.70;;;;;;4985965;28;19957;-86
2023/08/03 10:56:38;;;;;;;;;;;18.50;83.00;;;;;;4987195;28;20405;-88
2023/08/03 10:59:04;;;;;;;;;;;18.50;83.30;;;;;;4985292;28;19922;-89
2023/08/03 11:01:30;;;;;;;;;;;18.40;83.00;;;;;;4986509;28;20290;-84
2023/08/03 11:03:55;;;;;;;;;;;18.40;83.30;;;;;;4986978;28;19953;-86
2023/08/03 11:06:21;;;;;;;;;;;18.50;82.80;;;;;;4982660;28;19914;-86
2023/08/03 11:08:47;;;;;;;;;;;18.50;82.60;;;;;;4991054;28;19921;-91
2023/08/03 11:11:14;;;;;;;;;;;18.50;83.30;;;;;;4991211;28;20309;-85
2023/08/03 11:13:44;;;;;;;;;;;18.50;83.20;;;;;;4988540;28;20267;-85
2023/08/03 11:16:13;;;;;;;;;;;18.50;83.20;;;;;;4994896;28;19974;-85
2023/08/03 11:18:43;;;;;;;;;;;18.40;83.50;;;;;;4985301;28;19918;-82
2023/08/03 11:21:09;;;;;;;;;;;18.20;85.00;;;;;;4984626;28;20407;-84
2023/08/03 11:23:35;;;;;;;;;;;18.10;85.90;;;;;;4987717;28;19910;-84
2023/08/03 11:26:06;;;;;;;;;;;18.10;86.50;;;;;;4995865;28;19913;-85
2023/08/03 11:28:41;;;;;;;;;;;18.10;87.20;;;;;;4997003;28;20317;-85
2023/08/03 11:31:16;;;;;;;;;;;18.10;87.20;;;;;;4994759;28;20008;-84
2023/08/03 11:33:47;;;;;;;;;;;18.10;86.80;;;;;;4988339;28;19921;-85
2023/08/03 11:36:12;;;;;;;;;;;18.10;87.00;;;;;;4998242;28;19910;-85
2023/08/03 11:38:39;;;;;;;;;;;18.10;86.80;;;;;;4997416;28;19952;-84
2023/08/03 11:41:04;;;;;;;;;;;18.10;86.70;;;;;;4991744;28;19914;-85
2023/08/03 11:43:30;;;;;;;;;;;18.10;86.80;;;;;;4996596;28;20277;-85
2023/08/03 11:45:55;;;;;;;;;;;18.10;86.50;;;;;;4994114;28;19917;-84
2023/08/03 11:48:25;;;;;;;;;;;18.40;86.20;;;;;;4998665;28;21377;-82
2023/08/03 11:50:54;;;;;;;;;;;18.50;85.30;;;;;;4992899;28;19921;-84
2023/08/03 11:53:23;;;;;;;;;;;18.60;84.70;;;;;;4996738;28;19925;-85
2023/08/03 11:56:06;;;;;;;;;;;18.80;84.50;;;;;;5017947;23;19936;-92
2023/08/03 11:58:31;;;;;;;;;;;18.90;84.30;;;;;;5007428;28;19921;-90
2023/08/03 12:00:59;;;;;;;;;;;19.10;83.40;;;;;;5013991;28;20330;-91
2023/08/03 12:03:31;;;;;;;;;;;19.40;82.60;;;;;;5013412;28;19920;-92
2023/08/03 12:06:09;;;;;;;;;;;19.60;82.30;;;;;;5002862;28;20299;-91
2023/08/03 12:08:42;;;;;;;;;;;19.60;81.00;;;;;;4993662;28;19976;-88
2023/08/03 12:11:07;;;;;;;;;;;19.70;80.50;;;;;;4990370;28;19922;-88
2023/08/03 12:13:36;;;;;;;;;;;19.70;80.60;;;;;;4995887;28;19909;-88
2023/08/03 12:16:06;;;;;;;;;;;19.70;79.90;;;;;;4986780;28;19916;-88
2023/08/03 12:18:35;;;;;;;;;;;19.50;80.20;;;;;;4994641;28;20013;-88
2023/08/03 12:21:01;;;;;;;;;;;19.50;80.60;;;;;;4993568;28;19922;-89
2023/08/03 12:23:32;;;;;;;;;;;19.40;80.60;;;;;;4995235;28;19922;-88
2023/08/03 12:26:01;;;;;;;;;;;19.30;80.50;;;;;;4992314;28;19964;-91
2023/08/03 12:28:26;;;;;;;;;;;19.40;81.30;;;;;;4992552;28;19918;-87
2023/08/03 12:30:52;;;;;;;;;;;19.30;80.30;;;;;;4990536;28;19910;-87
2023/08/03 12:33:17;;;;;;;;;;;19.20;81.10;;;;;;4990886;28;19922;-88
2023/08/03 12:35:43;;;;;;;;;;;19.40;80.70;;;;;;4990300;28;20004;-87
2023/08/03 12:38:08;;;;;;;;;;;19.50;80.30;;;;;;4989054;28;19917;-87
2023/08/03 12:40:34;;;;;;;;;;;19.60;79.80;;;;;;4994285;28;19918;-86
2023/08/03 12:42:59;;;;;;;;;;;19.90;79.60;;;;;;4995461;28;19978;-88
2023/08/03 12:45:25;;;;;;;;;;;20.10;78.60;;;;;;4996981;28;19917;-89
2023/08/03 12:47:52;;;;;;;;;;;20.10;78.50;;;;;;4991037;28;19969;-89
2023/08/03 12:50:17;;;;;;;;;;;20.20;78.30;;;;;;4991181;28;19969;-89
2023/08/03 12:52:43;;;;;;;;;;;20.30;77.70;;;;;;4985277;28;19945;-88
2023/08/03 12:55:08;;;;;;;;;;;20.30;77.60;;;;;;4996219;28;19917;-89
2023/08/03 12:57:34;;;;;;;;;;;20.50;76.90;;;;;;4994636;28;19910;-89
2023/08/03 12:59:59;;;;;;;;;;;20.50;76.60;;;;;;4990178;28;19965;-90
2023/08/03 13:02:25;;;;;;;;;;;20.70;76.50;;;;;;4992946;28;19917;-89
2023/08/03 13:04:50;;;;;;;;;;;20.50;76.30;;;;;;4993365;28;19909;-89
2023/08/03 13:07:16;;;;;;;;;;;20.50;77.00;;;;;;4992889;28;19914;-89
2023/08/03 13:09:42;;;;;;;;;;;20.40;76.80;;;;;;4989115;28;19961;-89
2023/08/03 13:12:09;;;;;;;;;;;20.40;76.50;;;;;;5005826;28;19920;-90
2023/08/03 13:14:35;;;;;;;;;;;20.30;76.40;;;;;;4989974;28;19914;-89
2023/08/03 13:17:00;;;;;;;;;;;20.30;77.40;;;;;;4988100;28;19985;-89
2023/08/03 13:19:27;;;;;;;;;;;20.50;76.90;;;;;;4993317;28;19910;-89
2023/08/03 13:21:52;;;;;;;;;;;20.50;75.70;;;;;;4987492;28;19920;-90
2023/08/03 13:24:20;;;;;;;;;;;20.60;75.60;;;;;;4990263;28;20004;-90
2023/08/03 13:26:45;;;;;;;;;;;20.70;75.40;;;;;;4977520;28;20388;-88
2023/08/03 13:29:13;;;;;;;;;;;20.60;75.80;;;;;;4988572;28;19922;-89
2023/08/03 13:31:40;;;;;;;;;;;20.80;75.50;;;;;;4990910;28;19994;-90
2023/08/03 13:34:05;;;;;;;;;;;20.90;74.80;;;;;;4978321;28;19921;-89
2023/08/03 13:36:31;;;;;;;;;;;21.10;75.10;;;;;;4984264;28;20369;-89
2023/08/03 13:38:56;;;;;;;;;;;21.30;72.90;;;;;;4991383;28;19944;-89
2023/08/03 13:41:22;;;;;;;;;;;21.40;73.50;;;;;;4990631;28;19918;-89
2023/08/03 13:43:47;;;;;;;;;;;21.50;74.40;;;;;;4992764;28;19920;-89
2023/08/03 13:46:13;;;;;;;;;;;21.40;73.60;;;;;;4988719;28;19921;-88
2023/08/03 13:48:38;;;;;;;;;;;21.50;72.50;;;;;;4993858;28;20352;-88
2023/08/03 13:51:04;;;;;;;;;;;21.30;74.00;;;;;;4993698;28;19909;-89
2023/08/03 13:53:29;;;;;;;;;;;21.20;73.50;;;;;;4995685;28;19917;-90
2023/08/03 13:55:55;;;;;;;;;;;21.20;73.80;;;;;;5011239;28;19913;-91
2023/08/03 13:58:21;;;;;;;;;;;21.10;73.60;;;;;;4996065;28;20375;-89
2023/08/03 14:00:46;;;;;;;;;;;21.10;74.00;;;;;;4992020;28;19913;-89
2023/08/03 14:03:12;;;;;;;;;;;21.00;74.30;;;;;;5008389;28;20272;-89
2023/08/03 14:05:37;;;;;;;;;;;20.90;74.70;;;;;;4993441;28;19914;-89
2023/08/03 14:08:03;;;;;;;;;;;20.80;74.60;;;;;;4992989;28;20027;-89
2023/08/03 14:10:28;;;;;;;;;;;20.80;75.30;;;;;;4988296;28;19914;-89
2023/08/03 14:12:53;;;;;;;;;;;20.90;74.90;;;;;;4992658;28;19914;-89
2023/08/03 14:15:21;;;;;;;;;;;20.60;75.00;;;;;;4991164;28;19913;-90
2023/08/03 14:17:47;;;;;;;;;;;20.40;76.10;;;;;;4986537;28;19914;-89